»·PEaware :: N520MJ KVGT-KFMN

N520MJ :: KVGT-KFMN

FLIGHT INFORMATION

Flight Status: Arrived
Operator: Privately registered:
United States
More flights under this callsign
Pilot: Manuel P. (9695)
Aircraft: Unknown
(HA4T)
More flights by this aircraft type
Origin: KVGT North Las Vegas
United States
Destination: KFMN Four Corners Regl
United States
More flights between these airports :: More routes between these airports
Route: +RTTRN3 LAS LAPIN V562 PGS V210 FULLY
File this flight plan on PilotEdge
Remarks:
Altitude:
(Current/Filed)
41,000ft
Speed:
(Current/Filed)
400kts
Departed: 15-Jul-17 11:31 AM
Arrived: 15-Jul-17 12:31 PM
Distance/Time
Traveled:
338nm/1:00
Distance/Time
To Go:
Arrived

Flight Plot

Page will automatically refresh every two minutes.

Flight plan parsing failed; only flown route is shown


Map Options




Map Legend


Flown Route
Filed Route
Departure Airport
Arrival Airport
Navaid (VOR, NDB)
Fix

Horizontal Profiles

Position Reports

Time Latitude Longitude Heading Altitude Ground
Speed
15-Jul-17 10:45 36.209885 -115.199829 224 2211ft 0kts
15-Jul-17 10:46 36.209885 -115.199829 224 2211ft 0kts
15-Jul-17 10:47 36.209885 -115.199829 224 2211ft 0kts
15-Jul-17 10:48 36.209885 -115.199829 224 2211ft 0kts
15-Jul-17 10:49 36.209885 -115.199829 224 2211ft 0kts
15-Jul-17 10:50 36.209885 -115.199829 224 2211ft 0kts
15-Jul-17 10:51 36.209885 -115.199829 224 2211ft 0kts
15-Jul-17 10:52 36.209885 -115.199829 224 2211ft 0kts
15-Jul-17 10:53 36.209885 -115.199829 224 2211ft 0kts
15-Jul-17 10:54 36.209885 -115.199829 224 2211ft 0kts
15-Jul-17 10:55 36.209885 -115.199829 224 2211ft 0kts
15-Jul-17 10:56 36.209885 -115.199829 224 2211ft 0kts
15-Jul-17 10:57 36.209885 -115.199829 224 2211ft 0kts
15-Jul-17 10:58 36.209885 -115.199829 224 2211ft 0kts
15-Jul-17 10:59 36.209885 -115.199829 224 2211ft 0kts
15-Jul-17 11:00 36.209885 -115.199829 224 2211ft 0kts
15-Jul-17 11:01 36.209885 -115.199829 224 2211ft 0kts
15-Jul-17 11:02 36.209885 -115.199829 224 2211ft 0kts
15-Jul-17 11:03 36.209885 -115.199829 224 2211ft 0kts
15-Jul-17 11:04 36.209885 -115.199829 224 2211ft 0kts
15-Jul-17 11:05 36.209885 -115.199829 224 2211ft 0kts
15-Jul-17 11:06 36.209885 -115.199829 224 2211ft 0kts
15-Jul-17 11:07 36.209885 -115.199829 224 2211ft 0kts
15-Jul-17 11:08 36.209885 -115.199829 224 2211ft 0kts
15-Jul-17 11:09 36.209885 -115.199829 224 2211ft 0kts
15-Jul-17 11:10 36.209885 -115.199829 224 2211ft 0kts
15-Jul-17 11:11 36.209885 -115.199829 224 2211ft 0kts
15-Jul-17 11:12 36.209885 -115.199829 224 2211ft 0kts
15-Jul-17 11:13 36.209885 -115.199829 224 2211ft 0kts
15-Jul-17 11:14 36.209885 -115.199829 224 2211ft 0kts
15-Jul-17 11:15 36.209885 -115.199829 224 2211ft 0kts
15-Jul-17 11:16 36.209885 -115.199829 224 2211ft 0kts
15-Jul-17 11:17 36.209885 -115.199829 224 2211ft 0kts
15-Jul-17 11:18 36.209885 -115.199829 224 2211ft 0kts
15-Jul-17 11:19 36.209885 -115.199829 224 2211ft 0kts
15-Jul-17 11:20 36.209885 -115.199829 224 2211ft 0kts
15-Jul-17 11:21 36.209885 -115.199829 224 2211ft 0kts
15-Jul-17 11:22 36.209885 -115.199829 224 2211ft 0kts
15-Jul-17 11:23 36.209885 -115.199829 224 2211ft 0kts
15-Jul-17 11:24 36.209885 -115.199829 224 2211ft 0kts
15-Jul-17 11:25 36.209885 -115.199829 224 2211ft 0kts
15-Jul-17 11:26 36.209885 -115.199829 224 2211ft 0kts
15-Jul-17 11:27 36.209885 -115.199829 224 2211ft 0kts
15-Jul-17 11:28 36.209885 -115.199829 224 2211ft 0kts
15-Jul-17 11:29 36.209885 -115.199829 224 2211ft 0kts
15-Jul-17 11:30 36.210403 -115.200181 25 2211ft 3kts
15-Jul-17 11:31 36.211710 -115.200769 315 2211ft 9kts
15-Jul-17 11:32 36.212541 -115.201162 32 2211ft 0kts
15-Jul-17 11:33 36.212686 -115.200774 77 2211ft 4kts
15-Jul-17 11:34 36.208149 -115.194429 134 2211ft 137kts
15-Jul-17 11:35 36.171463 -115.200627 260 4722ft 173kts
15-Jul-17 11:36 36.190780 -115.258322 338 5015ft 238kts
15-Jul-17 11:37 36.256244 -115.287251 14 4993ft 266kts
15-Jul-17 11:38 36.259330 -115.225363 164 5006ft 236kts
15-Jul-17 11:39 36.192786 -115.221664 178 4994ft 249kts
15-Jul-17 11:40 36.126779 -115.193963 150 4988ft 252kts
15-Jul-17 11:41 36.085896 -115.137622 86 5787ft 237kts
15-Jul-17 11:42 36.094735 -115.044172 79 9590ft 298kts
15-Jul-17 11:43 36.108102 -114.938528 82 14642ft 327kts
15-Jul-17 11:44 36.124708 -114.805726 83 18603ft 431kts
15-Jul-17 11:45 36.143349 -114.656093 83 19763ft 465kts
15-Jul-17 11:46 36.155550 -114.496605 103 28797ft 505kts
15-Jul-17 11:47 36.083047 -114.348248 128 32250ft 522kts
15-Jul-17 11:48 36.002739 -114.206118 128 35620ft 492kts
15-Jul-17 11:49 35.924230 -114.067677 128 38880ft 495kts
15-Jul-17 11:50 35.846416 -113.930996 128 39722ft 496kts
15-Jul-17 11:51 35.767338 -113.792655 127 41085ft 493kts
15-Jul-17 11:52 35.688471 -113.655189 127 41704ft 488kts
15-Jul-17 11:53 35.637156 -113.506460 84 44075ft 498kts
15-Jul-17 11:54 35.674565 -113.341769 75 45129ft 505kts
15-Jul-17 11:55 35.714579 -113.177772 75 45139ft 505kts
15-Jul-17 11:56 35.754722 -113.012190 75 45345ft 509kts
15-Jul-17 11:57 35.794814 -112.845725 75 45374ft 510kts
15-Jul-17 11:58 35.834616 -112.679129 75 45374ft 497kts
15-Jul-17 11:59 35.872400 -112.520240 74 45370ft 480kts
15-Jul-17 12:00 35.909662 -112.362360 74 45370ft 479kts
15-Jul-17 12:01 35.945824 -112.206058 75 45374ft 479kts
15-Jul-17 12:02 35.978842 -112.046797 77 45374ft 483kts
15-Jul-17 12:03 36.008882 -111.885679 77 45372ft 483kts
15-Jul-17 12:04 36.038708 -111.724068 77 45371ft 483kts
15-Jul-17 12:05 36.068382 -111.561994 77 45370ft 483kts
15-Jul-17 12:06 36.097731 -111.400372 77 45371ft 483kts
15-Jul-17 12:07 36.125465 -111.250362 75 43075ft 474kts
15-Jul-17 12:08 36.158509 -111.094260 76 40587ft 470kts
15-Jul-17 12:09 36.191962 -110.934378 75 38104ft 504kts
15-Jul-17 12:10 36.227566 -110.764200 73 35640ft 509kts
15-Jul-17 12:11 36.262706 -110.594992 74 32916ft 514kts
15-Jul-17 12:12 36.298059 -110.422788 76 30138ft 515kts
15-Jul-17 12:13 36.331400 -110.259183 76 27389ft 490kts
15-Jul-17 12:14 36.364198 -110.097210 76 24594ft 475kts
15-Jul-17 12:15 36.395136 -109.943221 76 21765ft 457kts
15-Jul-17 12:16 36.425162 -109.792732 76 21367ft 443kts
15-Jul-17 12:17 36.453889 -109.647588 76 21369ft 432kts
15-Jul-17 12:18 36.482029 -109.504493 76 21295ft 426kts
15-Jul-17 12:19 36.509732 -109.362683 76 21277ft 429kts
15-Jul-17 12:20 36.537679 -109.218707 77 20522ft 432kts
15-Jul-17 12:21 36.565099 -109.076380 77 18016ft 418kts
15-Jul-17 12:22 36.591704 -108.937271 77 15510ft 410kts
15-Jul-17 12:23 36.617818 -108.798949 77 13089ft 418kts
15-Jul-17 12:24 36.639782 -108.670276 77 12226ft 366kts
15-Jul-17 12:25 36.660007 -108.550717 77 10046ft 328kts
15-Jul-17 12:26 36.675449 -108.451309 79 9373ft 276kts
15-Jul-17 12:27 36.680645 -108.362315 85 9274ft 244kts
15-Jul-17 12:28 36.684709 -108.275507 89 8760ft 258kts
15-Jul-17 12:29 36.683188 -108.192905 86 8107ft 235kts
15-Jul-17 12:30 36.691503 -108.122873 48 7301ft 194kts
15-Jul-17 12:31 36.729002 -108.118501 288 6733ft 154kts
15-Jul-17 12:32 36.742410 -108.166249 277 6551ft 164kts
15-Jul-17 12:33 36.741599 -108.219641 270 5515ft 142kts
15-Jul-17 12:34 36.741065 -108.237782 228 5511ft 7kts
15-Jul-17 12:35 36.740370 -108.237411 89 5511ft 6kts
15-Jul-17 12:36 36.740442 -108.233951 88 5511ft 12kts
15-Jul-17 12:37 36.740564 -108.228891 88 5511ft 15kts
15-Jul-17 12:38 36.739487 -108.226190 180 5511ft 0kts
15-Jul-17 12:39 36.739487 -108.226190 180 5511ft 0kts

Navigation Log

Ident Type
Flight plan parsing failed, navigation log unavailable